Trenton, Pennsylvania
Current Conditions -  °F | °C
As of 4:35 PM on Thursday 18 Dec 2014 (Local Time) from KHZL Reporting Station
Overcast Overcast  
Wind Chill: 23°   Ceiling: 2100
Heat Index: 32°   Visibility: 10mi
Dew Point: 27°   Wind: 13mph
Humidity: 80%   Direction: 280°W
Pressure: 29.99"   Gusts: 18mph
Location:  40.8128°N, 76.1382°W
Report Text: KHZL 182135Z AUTO 28011G16KT 250V310 10SM OVC021 00/M03 A2999 RMK AO2
Loading
Personal Weather Stations






























Interactive Weather Map New forecast layout! Learn more

10-Day Weather Forecast

Advertisements
Track Severe Weather on mobile